Nefterudovoz-29m — UIMI — position and weather

sailwx.info

Track history (hours):
 
Tides and Currents Weather Stations Pressure Air Temp Water Temp Dewpoint Dewpoint Depression Visibility Wind Speed Wind Dir Waves Ship Positions

Nefterudovoz-29m

Last reported at 2017-Jun-08 14:13 UTC. Time now 2017-Jun-24 07:04 UTC.
Position N 45°55' E 037°01'.
Warning: this ship's position is 15 days out of date.

Length 119 m; draft 2.4 m.

Type: Cargo ship. MMSI: 273345300.

Date/timePositionNaut miles runAvg speedWind from/ knotsBaromVisibWave heightAir tempDewpointWater temp
2017-Jun-08 14:13N 45°55' E 037°01'26 7.7
2017-Jun-08 10:49N 45°31' E 036°47'3 7.9
2017-Jun-08 10:26N 45°29' E 036°44'3 8.0
2017-Jun-08 10:00N 45°26' E 036°42'4 8.0
2017-Jun-08 09:30N 45°22' E 036°40'4 8.3
2017-Jun-08 09:01N 45°20' E 036°35'4 8.7
2017-Jun-08 08:30N 45°18' E 036°29'5 8.1
2017-Jun-08 07:57N 45°14' E 036°29'2 0.3
2017-Jun-08 01:18N 45°12' E 036°30'  
2017-Jun-04 22:27N 45°12' E 036°29'3 6.8
2017-Jun-04 22:01N 45°15' E 036°28'4 6.7
2017-Jun-04 21:28N 45°18' E 036°30'3 7.6
2017-Jun-04 21:00N 45°20' E 036°35'4 7.5
2017-Jun-04 20:31N 45°22' E 036°39'4 7.1
2017-Jun-04 20:00N 45°25' E 036°41'3 6.2
2017-Jun-04 19:30N 45°28' E 036°39'1 2.4
2017-Jun-04 19:00N 45°29' E 036°38'0 0.6
2017-Jun-04 18:30N 45°29' E 036°38'3 6.1
2017-Jun-04 18:00N 45°31' E 036°42'  
Track history (hours):
 
Tides and Currents Weather Stations Pressure Air Temp Water Temp Dewpoint Dewpoint Depression Visibility Wind Speed Wind Dir Waves Ship Positions

Nefterudovoz-29m

Last reported at 2017-Jun-08 14:13 UTC. Time now 2017-Jun-24 07:04 UTC.
Position N 45°55' E 037°01'.
Warning: this ship's position is 15 days out of date.

Length 119 m; draft 2.4 m.

Type: Cargo ship. MMSI: 273345300.

Date/timePositionNaut miles runAvg speedWind from/ knotsBaromVisibWave heightAir tempDewpointWater temp
2017-Jun-08 14:13N 45°55' E 037°01'26 7.7
2017-Jun-08 10:49N 45°31' E 036°47'3 7.9
2017-Jun-08 10:26N 45°29' E 036°44'3 8.0
2017-Jun-08 10:00N 45°26' E 036°42'4 8.0
2017-Jun-08 09:30N 45°22' E 036°40'4 8.3
2017-Jun-08 09:01N 45°20' E 036°35'4 8.7
2017-Jun-08 08:30N 45°18' E 036°29'5 8.1
2017-Jun-08 07:57N 45°14' E 036°29'2 0.3
2017-Jun-08 01:18N 45°12' E 036°30'  
2017-Jun-04 22:27N 45°12' E 036°29'3 6.8
2017-Jun-04 22:01N 45°15' E 036°28'4 6.7
2017-Jun-04 21:28N 45°18' E 036°30'3 7.6
2017-Jun-04 21:00N 45°20' E 036°35'4 7.5
2017-Jun-04 20:31N 45°22' E 036°39'4 7.1
2017-Jun-04 20:00N 45°25' E 036°41'3 6.2
2017-Jun-04 19:30N 45°28' E 036°39'1 2.4
2017-Jun-04 19:00N 45°29' E 036°38'0 0.6
2017-Jun-04 18:30N 45°29' E 036°38'3 6.1
2017-Jun-04 18:00N 45°31' E 036°42'  

Dump ship's entire track history